Time;durP1;ratioP1;P1;durP2;ratioP2;P2;SDS_P1;SDS_P2;PMS_P1;PMS_P2;Temp;Humidity;BMP_temperature;BMP_pressure;BME280_temperature;BME280_humidity;BME280_pressure;Samples;Min_cycle;Max_cycle;Signal;HPM_P1;HPM_P2
2023/12/07 00:01:11;;;;;;;19.40;14.43;;;0.50;99.90;;;;;;4971650;28;20041;-85
2023/12/07 00:03:36;;;;;;;21.47;14.93;;;0.50;99.90;;;;;;4971053;28;20049;-85
2023/12/07 00:06:02;;;;;;;19.77;14.67;;;0.50;99.90;;;;;;4971639;28;20031;-85
2023/12/07 00:08:29;;;;;;;23.73;15.90;;;0.50;99.90;;;;;;4972866;28;20049;-85
2023/12/07 00:10:54;;;;;;;22.73;16.17;;;0.40;99.90;;;;;;4971684;28;20027;-84
2023/12/07 00:13:21;;;;;;;22.73;16.33;;;0.40;99.90;;;;;;4974846;28;20029;-85
2023/12/07 00:15:46;;;;;;;24.60;16.60;;;0.40;99.90;;;;;;4972061;28;20050;-86
2023/12/07 00:18:12;;;;;;;24.63;16.67;;;0.40;99.90;;;;;;4972117;28;20041;-84
2023/12/07 00:20:37;;;;;;;24.00;16.30;;;0.30;99.90;;;;;;4972087;28;20033;-83
2023/12/07 00:23:03;;;;;;;22.77;16.10;;;0.30;99.90;;;;;;4972890;28;20066;-85
2023/12/07 00:25:29;;;;;;;23.03;15.63;;;0.30;99.90;;;;;;4972289;28;20034;-84
2023/12/07 00:27:54;;;;;;;26.40;17.33;;;0.30;99.90;;;;;;4972926;28;20109;-84
2023/12/07 00:30:20;;;;;;;24.57;17.23;;;0.30;99.90;;;;;;4971625;28;20042;-85
2023/12/07 00:32:46;;;;;;;25.00;16.77;;;0.20;99.90;;;;;;4971859;28;20072;-85
2023/12/07 00:35:12;;;;;;;24.33;16.93;;;0.20;99.90;;;;;;4972904;28;20962;-84
2023/12/07 00:37:38;;;;;;;23.67;16.47;;;0.20;99.90;;;;;;4972752;28;20027;-84
2023/12/07 00:40:04;;;;;;;24.90;17.57;;;0.20;99.90;;;;;;4969995;28;20034;-85
2023/12/07 00:42:30;;;;;;;21.83;15.77;;;0.10;99.90;;;;;;4972739;28;20137;-84
2023/12/07 00:44:56;;;;;;;24.87;16.67;;;0.10;99.90;;;;;;4970385;28;20050;-84
2023/12/07 00:47:22;;;;;;;23.47;17.07;;;0.10;99.90;;;;;;4971557;28;20489;-85
2023/12/07 00:49:47;;;;;;;22.47;15.67;;;0.00;99.90;;;;;;4973266;28;20037;-85
2023/12/07 00:52:13;;;;;;;22.97;16.60;;;-0.10;99.90;;;;;;4974145;28;20516;-83
2023/12/07 00:54:40;;;;;;;24.67;17.10;;;-0.10;99.90;;;;;;4971367;28;20657;-84
2023/12/07 00:57:06;;;;;;;23.60;16.27;;;-0.10;99.90;;;;;;4973039;28;20656;-83
2023/12/07 00:59:33;;;;;;;26.20;17.80;;;-0.20;99.90;;;;;;4972310;28;20027;-85
2023/12/07 01:02:08;;;;;;;27.27;16.80;;;-0.20;99.90;;;;;;4972503;28;20511;-84
2023/12/07 01:04:33;;;;;;;18.15;12.85;;;-0.20;99.90;;;;;;4974598;28;20031;-85
2023/12/07 01:06:59;;;;;;;26.20;16.77;;;-0.20;99.90;;;;;;4975192;28;20053;-84
2023/12/07 01:09:25;;;;;;;25.63;17.63;;;-0.30;99.90;;;;;;4977708;28;20049;-84
2023/12/07 01:11:51;;;;;;;26.33;17.07;;;-0.30;99.90;;;;;;4975832;28;20058;-84
2023/12/07 01:14:18;;;;;;;26.63;17.53;;;-0.30;99.90;;;;;;4972222;28;20089;-83
2023/12/07 01:16:44;;;;;;;24.37;17.17;;;-0.40;99.90;;;;;;4972294;28;20635;-84
2023/12/07 01:19:10;;;;;;;25.27;18.43;;;-0.40;99.90;;;;;;4974249;28;20073;-84
2023/12/07 01:21:35;;;;;;;28.27;19.20;;;-0.40;99.90;;;;;;4972594;28;20088;-84
2023/12/07 01:24:01;;;;;;;26.97;18.37;;;-0.40;99.90;;;;;;4971543;28;20655;-84
2023/12/07 01:26:26;;;;;;;28.23;17.70;;;-0.50;99.90;;;;;;4970399;28;20050;-82
2023/12/07 01:28:52;;;;;;;27.87;18.13;;;-0.50;99.90;;;;;;4974120;28;20026;-84
2023/12/07 01:31:17;;;;;;;28.50;19.07;;;-0.50;99.90;;;;;;4975981;28;20026;-83
2023/12/07 01:33:43;;;;;;;29.83;19.13;;;-0.50;99.90;;;;;;4977020;28;20039;-84
2023/12/07 01:36:10;;;;;;;28.33;18.60;;;-0.50;99.90;;;;;;4975926;28;20519;-83
2023/12/07 01:38:35;;;;;;;28.43;18.93;;;-0.50;99.90;;;;;;4975611;28;20069;-84
2023/12/07 01:41:01;;;;;;;28.77;19.37;;;-0.50;99.90;;;;;;4976735;28;20038;-84
2023/12/07 01:43:26;;;;;;;24.37;17.37;;;-0.60;99.90;;;;;;4975171;28;20022;-82
2023/12/07 01:45:55;;;;;;;26.10;17.23;;;-0.60;99.90;;;;;;4981259;28;20038;-84
2023/12/07 01:48:23;;;;;;;26.00;17.43;;;-0.60;99.90;;;;;;4977370;28;20472;-82
2023/12/07 01:50:49;;;;;;;26.23;17.87;;;-0.60;99.90;;;;;;4976429;28;20031;-83
2023/12/07 01:53:16;;;;;;;27.30;17.57;;;-0.60;99.90;;;;;;4979208;28;20081;-83
2023/12/07 01:55:42;;;;;;;26.53;18.00;;;-0.60;99.90;;;;;;4979834;28;20038;-82
2023/12/07 01:58:07;;;;;;;28.30;19.37;;;-0.70;99.90;;;;;;4983975;28;20031;-81
2023/12/07 02:00:34;;;;;;;30.17;19.17;;;-0.70;99.90;;;;;;4991188;28;20033;-82
2023/12/07 02:03:00;;;;;;;29.77;19.43;;;-0.70;99.90;;;;;;4996793;28;20038;-82
2023/12/07 02:05:26;;;;;;;29.73;20.17;;;-0.70;99.90;;;;;;4989558;28;20026;-82
2023/12/07 02:07:52;;;;;;;31.73;19.97;;;-0.80;99.90;;;;;;4974040;28;20049;-82
2023/12/07 02:10:18;;;;;;;33.50;20.63;;;-0.80;99.90;;;;;;4975373;28;20026;-83
2023/12/07 02:12:45;;;;;;;28.77;19.07;;;-0.80;99.90;;;;;;4976366;28;20046;-82
2023/12/07 02:15:11;;;;;;;30.53;20.47;;;-0.80;99.90;;;;;;4975476;28;20035;-82
2023/12/07 02:17:56;;;;;;;31.67;19.83;;;-0.80;99.90;;;;;;4976449;28;20524;-83
2023/12/07 02:20:31;;;;;;;31.27;20.05;;;-0.80;99.90;;;;;;4978416;28;20265;-83
2023/12/07 02:23:01;;;;;;;30.17;19.13;;;-0.80;99.90;;;;;;4978453;28;20464;-83
2023/12/07 02:25:41;;;;;;;30.57;19.63;;;-0.80;99.90;;;;;;4978334;28;20030;-81
2023/12/07 02:28:07;;;;;;;31.83;19.00;;;-0.90;99.90;;;;;;4979632;28;20026;-82
2023/12/07 02:30:33;;;;;;;33.10;19.77;;;-0.90;99.90;;;;;;4960139;28;20688;-82
2023/12/07 02:32:58;;;;;;;32.47;20.77;;;-0.90;99.90;;;;;;4978468;28;20042;-84
2023/12/07 02:35:25;;;;;;;30.30;19.20;;;-0.90;99.90;;;;;;4977157;28;20030;-83
2023/12/07 02:37:51;;;;;;;31.43;19.87;;;-0.90;99.90;;;;;;4978203;28;21376;-81
2023/12/07 02:40:20;;;;;;;29.47;19.50;;;-0.90;99.90;;;;;;4980485;28;20396;-82
2023/12/07 02:42:46;;;;;;;29.47;19.70;;;-0.90;99.90;;;;;;4986810;28;20097;-81
2023/12/07 02:45:13;;;;;;;27.93;19.00;;;-0.90;99.90;;;;;;4985659;28;20165;-82
2023/12/07 02:47:39;;;;;;;33.90;21.50;;;-1.00;99.90;;;;;;4983851;28;20520;-82
2023/12/07 02:50:06;;;;;;;34.47;22.37;;;-0.90;99.90;;;;;;4977004;28;20030;-82
2023/12/07 02:52:33;;;;;;;31.67;20.37;;;-1.00;99.90;;;;;;4978905;28;20018;-84
2023/12/07 02:54:58;;;;;;;33.53;20.83;;;-1.00;99.90;;;;;;4977310;28;20037;-82
2023/12/07 02:57:24;;;;;;;33.03;20.33;;;-1.00;99.90;;;;;;4977464;28;20077;-82
2023/12/07 02:59:49;;;;;;;34.00;20.90;;;-1.00;99.90;;;;;;4977724;28;20922;-82
2023/12/07 03:02:15;;;;;;;32.30;20.73;;;-1.00;99.90;;;;;;4978545;28;20038;-82
2023/12/07 03:04:40;;;;;;;31.43;20.23;;;-1.00;99.90;;;;;;4978250;28;20030;-82
2023/12/07 03:07:06;;;;;;;33.43;20.97;;;-1.00;99.90;;;;;;4977741;28;20868;-82
2023/12/07 03:09:31;;;;;;;35.27;21.20;;;-1.00;99.90;;;;;;4977636;28;20129;-81
2023/12/07 03:11:57;;;;;;;34.57;21.80;;;-0.90;99.90;;;;;;4976923;28;20022;-82
2023/12/07 03:14:22;;;;;;;37.80;22.07;;;-0.90;99.90;;;;;;4976672;28;20121;-82
2023/12/07 03:16:48;;;;;;;34.23;21.00;;;-0.90;99.90;;;;;;4978279;28;20041;-82
2023/12/07 03:19:13;;;;;;;33.27;20.13;;;-0.80;99.90;;;;;;4977049;28;20026;-82
2023/12/07 03:21:40;;;;;;;34.87;21.40;;;-0.80;99.90;;;;;;4977261;28;20034;-83
2023/12/07 03:24:07;;;;;;;32.80;20.40;;;-0.80;99.90;;;;;;4977177;28;20601;-82
2023/12/07 03:26:33;;;;;;;31.23;20.30;;;-0.80;99.90;;;;;;4976706;28;20161;-82
2023/12/07 03:28:59;;;;;;;33.13;19.50;;;-0.70;99.90;;;;;;4976197;28;20041;-83
2023/12/07 03:31:24;;;;;;;31.70;20.43;;;-0.70;99.90;;;;;;4977178;28;20026;-82
2023/12/07 03:33:50;;;;;;;32.87;20.23;;;-0.70;99.90;;;;;;4978114;28;20653;-81
2023/12/07 03:36:16;;;;;;;30.90;20.43;;;-0.70;99.90;;;;;;4976514;28;20031;-83
2023/12/07 03:38:42;;;;;;;31.47;20.10;;;-0.70;99.90;;;;;;4978217;28;20030;-82
2023/12/07 03:41:08;;;;;;;32.63;20.60;;;-0.70;99.90;;;;;;4977330;28;20054;-82
2023/12/07 03:43:33;;;;;;;30.87;19.80;;;-0.70;99.90;;;;;;4977357;28;20504;-82
2023/12/07 03:45:59;;;;;;;30.53;20.50;;;-0.70;99.90;;;;;;4976496;28;20023;-82
2023/12/07 03:48:24;;;;;;;31.70;20.67;;;-0.70;99.90;;;;;;4975901;28;20030;-82
2023/12/07 03:50:50;;;;;;;33.10;19.63;;;-0.70;99.90;;;;;;4976895;28;20026;-82
2023/12/07 03:53:15;;;;;;;29.20;19.17;;;-0.70;99.90;;;;;;4976200;28;20533;-82
2023/12/07 03:55:41;;;;;;;28.43;18.47;;;-0.70;99.90;;;;;;4976330;28;21305;-83
2023/12/07 03:58:07;;;;;;;27.33;18.60;;;-0.70;99.90;;;;;;4977943;28;20026;-82
2023/12/07 04:00:32;;;;;;;29.53;18.77;;;-0.70;99.90;;;;;;4977951;28;20725;-82
2023/12/07 04:02:58;;;;;;;28.23;17.73;;;-0.70;99.90;;;;;;4977374;28;20114;-82
2023/12/07 04:05:24;;;;;;;27.97;18.33;;;-0.80;99.90;;;;;;4977454;28;20116;-83
2023/12/07 04:07:51;;;;;;;27.07;17.20;;;-0.80;99.90;;;;;;4976922;28;20027;-82
2023/12/07 04:10:16;;;;;;;27.23;18.60;;;-0.80;99.90;;;;;;4974915;28;20034;-80
2023/12/07 04:12:42;;;;;;;25.77;16.60;;;-0.90;99.90;;;;;;4978244;28;20436;-83
2023/12/07 04:15:08;;;;;;;30.57;18.03;;;-0.90;99.90;;;;;;4977109;28;20030;-82
2023/12/07 04:17:33;;;;;;;27.43;17.70;;;-0.90;99.90;;;;;;4977292;28;20026;-82
2023/12/07 04:19:59;;;;;;;27.47;17.37;;;-1.00;99.90;;;;;;4975944;28;20169;-82
2023/12/07 04:22:24;;;;;;;25.33;17.27;;;-1.00;99.90;;;;;;4976958;28;20022;-82
2023/12/07 04:24:50;;;;;;;27.60;17.93;;;-1.00;99.90;;;;;;4975651;28;20374;-81
2023/12/07 04:27:15;;;;;;;28.93;17.63;;;-1.10;99.90;;;;;;4981484;28;20088;-81
2023/12/07 04:29:41;;;;;;;28.20;17.47;;;-1.10;99.90;;;;;;4980265;28;20045;-81
2023/12/07 04:32:07;;;;;;;25.47;17.43;;;-1.10;99.90;;;;;;4984191;28;20476;-82
2023/12/07 04:34:33;;;;;;;26.27;17.73;;;-1.10;99.90;;;;;;4979513;28;20056;-82
2023/12/07 04:36:59;;;;;;;28.33;18.30;;;-1.10;99.90;;;;;;4977635;28;20484;-81
2023/12/07 04:39:24;;;;;;;28.47;18.00;;;-1.20;99.90;;;;;;4979637;28;20077;-82
2023/12/07 04:41:51;;;;;;;32.00;18.13;;;-1.20;99.90;;;;;;4975065;28;20030;-83
2023/12/07 04:44:16;;;;;;;30.20;18.00;;;-1.20;99.90;;;;;;4976805;28;20106;-82
2023/12/07 04:46:42;;;;;;;28.93;17.30;;;-1.20;99.90;;;;;;4978150;28;20157;-82
2023/12/07 04:49:08;;;;;;;31.47;18.33;;;-1.20;99.90;;;;;;4978968;28;20034;-82
2023/12/07 04:51:34;;;;;;;27.70;17.63;;;-1.20;99.90;;;;;;4980385;28;20030;-82
2023/12/07 04:53:59;;;;;;;26.77;16.50;;;-1.20;99.90;;;;;;4982211;28;20146;-82
2023/12/07 04:56:25;;;;;;;29.93;18.57;;;-1.20;99.90;;;;;;4982686;28;20026;-81
2023/12/07 04:58:50;;;;;;;28.57;17.40;;;-1.20;99.90;;;;;;4990971;28;20758;-81
2023/12/07 05:01:16;;;;;;;30.57;18.10;;;-1.20;99.90;;;;;;4992398;28;20022;-82
2023/12/07 05:03:41;;;;;;;29.70;17.90;;;-1.20;99.90;;;;;;4980533;28;20077;-82
2023/12/07 05:06:07;;;;;;;26.63;17.70;;;-1.20;99.90;;;;;;4976496;28;20034;-81
2023/12/07 05:08:33;;;;;;;25.83;17.10;;;-1.20;99.90;;;;;;4977458;28;20049;-82
2023/12/07 05:10:58;;;;;;;26.73;17.10;;;-1.20;99.90;;;;;;4977376;28;20049;-81
2023/12/07 05:13:24;;;;;;;26.10;16.93;;;-1.30;99.90;;;;;;4976844;28;20062;-78
2023/12/07 05:15:49;;;;;;;25.03;16.57;;;-1.30;99.90;;;;;;4973838;28;20030;-82
2023/12/07 05:18:15;;;;;;;26.80;17.30;;;-1.30;99.90;;;;;;4976892;28;20396;-84
2023/12/07 05:20:40;;;;;;;28.13;16.17;;;-1.30;99.90;;;;;;4975984;28;21027;-83
2023/12/07 05:23:06;;;;;;;27.57;16.90;;;-1.30;99.90;;;;;;4975839;28;20057;-84
2023/12/07 05:25:32;;;;;;;26.00;17.17;;;-1.40;99.90;;;;;;4975449;28;20362;-84
2023/12/07 05:27:58;;;;;;;30.53;17.07;;;-1.40;99.90;;;;;;4974973;28;20062;-84
2023/12/07 05:30:23;;;;;;;27.10;16.77;;;-1.40;99.90;;;;;;4976241;28;20050;-84
2023/12/07 05:32:50;;;;;;;28.43;17.03;;;-1.40;99.90;;;;;;4975846;28;20030;-84
2023/12/07 05:35:16;;;;;;;27.10;16.33;;;-1.40;99.90;;;;;;4975244;28;20463;-84
2023/12/07 05:37:41;;;;;;;27.30;16.37;;;-1.50;99.90;;;;;;4975076;28;20029;-84
2023/12/07 05:40:08;;;;;;;26.87;16.63;;;-1.50;99.90;;;;;;4974896;28;20029;-84
2023/12/07 05:42:33;;;;;;;28.17;16.57;;;-1.50;99.90;;;;;;4975329;28;20026;-84
2023/12/07 05:44:59;;;;;;;30.23;16.77;;;-1.50;99.90;;;;;;4975971;28;20035;-84
2023/12/07 05:47:25;;;;;;;30.07;17.40;;;-1.50;99.90;;;;;;4975144;28;20527;-83
2023/12/07 05:49:51;;;;;;;30.87;18.57;;;-1.60;99.90;;;;;;4975268;28;20058;-83
2023/12/07 05:52:16;;;;;;;28.40;17.37;;;-1.60;99.90;;;;;;4975393;28;20455;-84
2023/12/07 05:54:46;;;;;;;28.83;17.20;;;-1.60;99.90;;;;;;4978440;28;20047;-83
2023/12/07 05:57:12;;;;;;;28.47;16.67;;;-1.60;99.90;;;;;;4976923;28;20554;-83
2023/12/07 05:59:38;;;;;;;27.00;17.37;;;-1.60;99.90;;;;;;4976861;28;20023;-83
2023/12/07 06:02:04;;;;;;;30.43;16.90;;;-1.60;99.90;;;;;;4978261;28;20113;-83
2023/12/07 06:04:30;;;;;;;30.40;16.77;;;-1.60;99.90;;;;;;4978025;28;20045;-83
2023/12/07 06:06:56;;;;;;;32.50;17.40;;;-1.60;99.90;;;;;;4976744;28;20440;-83
2023/12/07 06:09:21;;;;;;;28.57;16.30;;;-1.60;99.90;;;;;;4970697;28;20027;-83
2023/12/07 06:11:47;;;;;;;30.73;17.20;;;-1.60;99.90;;;;;;4975674;28;21012;-83
2023/12/07 06:14:12;;;;;;;29.90;17.27;;;-1.70;99.90;;;;;;4974925;28;20116;-83
2023/12/07 06:16:38;;;;;;;24.63;15.80;;;-1.60;99.90;;;;;;4975598;28;20116;-83
2023/12/07 06:19:03;;;;;;;26.50;15.60;;;-1.70;99.90;;;;;;4977158;28;20035;-81
2023/12/07 06:21:30;;;;;;;26.03;14.63;;;-1.70;99.90;;;;;;4974995;28;20026;-80
2023/12/07 06:23:55;;;;;;;24.93;15.07;;;-1.80;99.90;;;;;;4974166;28;20034;-81
2023/12/07 06:26:21;;;;;;;22.17;13.77;;;-1.80;99.90;;;;;;4972365;28;20123;-81
2023/12/07 06:28:47;;;;;;;24.77;14.80;;;-1.80;99.90;;;;;;4975587;28;20117;-81
2023/12/07 06:31:14;;;;;;;26.10;14.90;;;-1.90;99.90;;;;;;4977009;28;20054;-81
2023/12/07 06:33:40;;;;;;;26.00;16.13;;;-1.90;99.90;;;;;;4975070;28;20023;-81
2023/12/07 06:36:06;;;;;;;24.80;16.77;;;-2.00;99.90;;;;;;4976119;28;20081;-81
2023/12/07 06:38:32;;;;;;;24.37;15.37;;;-2.00;99.90;;;;;;4977033;28;20033;-81
2023/12/07 06:40:57;;;;;;;29.73;15.63;;;-2.00;99.90;;;;;;4975537;28;20043;-80
2023/12/07 06:43:23;;;;;;;27.77;17.67;;;-2.10;99.90;;;;;;4974039;28;20082;-80
2023/12/07 06:45:49;;;;;;;24.37;15.83;;;-2.10;99.90;;;;;;4988748;28;20038;-79
2023/12/07 06:48:14;;;;;;;27.47;17.00;;;-2.20;99.90;;;;;;4988105;28;20030;-83
2023/12/07 06:50:40;;;;;;;26.43;16.83;;;-2.20;99.90;;;;;;4976955;28;20085;-78
2023/12/07 06:53:05;;;;;;;27.60;16.13;;;-2.20;99.90;;;;;;4977020;28;20029;-78
2023/12/07 06:55:31;;;;;;;24.87;15.33;;;-2.30;99.90;;;;;;4977664;28;20033;-78
2023/12/07 06:57:57;;;;;;;27.90;16.50;;;-2.30;99.90;;;;;;4974921;28;20023;-78
2023/12/07 07:00:24;;;;;;;25.30;15.80;;;-2.30;99.90;;;;;;5011304;23;20456;-81
2023/12/07 07:02:50;;;;;;;21.33;14.23;;;-2.30;99.90;;;;;;5005601;28;20021;-82
2023/12/07 07:05:15;;;;;;;25.47;14.90;;;-2.30;99.90;;;;;;5005954;28;20026;-82
2023/12/07 07:07:41;;;;;;;24.07;15.40;;;-2.40;99.90;;;;;;5011652;28;20034;-82
2023/12/07 07:10:09;;;;;;;23.07;14.87;;;-2.40;99.90;;;;;;5011598;28;20105;-82
2023/12/07 07:12:35;;;;;;;21.37;14.00;;;-2.40;99.90;;;;;;5012176;28;20109;-82
2023/12/07 07:15:01;;;;;;;28.40;14.23;;;-2.40;99.90;;;;;;5014616;28;20061;-82
2023/12/07 07:17:28;;;;;;;27.13;12.60;;;-2.40;99.90;;;;;;5004915;28;20058;-81
2023/12/07 07:19:55;;;;;;;22.27;13.53;;;-2.30;99.90;;;;;;5000342;28;20104;-81
2023/12/07 07:22:21;;;;;;;22.37;13.60;;;-2.30;99.90;;;;;;5002157;28;20026;-79
2023/12/07 07:24:47;;;;;;;24.53;13.97;;;-2.30;99.90;;;;;;4996280;28;20038;-79
2023/12/07 07:27:12;;;;;;;21.97;13.33;;;-2.30;99.90;;;;;;4997915;28;20022;-79
2023/12/07 07:29:38;;;;;;;20.97;12.37;;;-2.30;99.90;;;;;;4995439;28;20500;-79
2023/12/07 07:32:04;;;;;;;20.57;12.20;;;-2.20;99.90;;;;;;4998832;28;20435;-79
2023/12/07 07:34:30;;;;;;;22.77;14.10;;;-2.20;99.90;;;;;;5000509;28;20038;-79
2023/12/07 07:36:55;;;;;;;24.63;13.77;;;-2.20;99.90;;;;;;5001486;28;20019;-79
2023/12/07 07:39:21;;;;;;;22.60;13.07;;;-2.10;99.90;;;;;;5007416;28;20069;-79
2023/12/07 07:41:46;;;;;;;19.77;12.53;;;-2.10;99.90;;;;;;5004938;28;20029;-78
2023/12/07 07:44:12;;;;;;;20.97;11.83;;;-2.00;99.90;;;;;;5000846;28;20034;-79
2023/12/07 07:46:37;;;;;;;16.73;10.97;;;-2.00;99.90;;;;;;4999980;28;20026;-79
2023/12/07 07:49:06;;;;;;;20.53;12.17;;;-2.00;99.90;;;;;;4998423;28;20435;-79
2023/12/07 07:51:32;;;;;;;21.00;12.63;;;-2.10;99.90;;;;;;4994948;28;20026;-79
2023/12/07 07:53:59;;;;;;;22.13;12.83;;;-2.10;99.90;;;;;;4983539;28;20516;-79
2023/12/07 07:56:24;;;;;;;18.70;11.40;;;-2.20;99.90;;;;;;4981403;28;20031;-79
2023/12/07 07:58:50;;;;;;;19.43;12.13;;;-2.30;99.90;;;;;;4981652;28;20026;-79
2023/12/07 08:01:15;;;;;;;19.07;12.00;;;-2.30;99.90;;;;;;4982334;28;20977;-79
2023/12/07 08:03:41;;;;;;;19.73;12.03;;;-2.20;99.90;;;;;;4980699;28;20039;-78
2023/12/07 08:06:07;;;;;;;18.77;11.40;;;-2.20;99.90;;;;;;4982127;28;20122;-79
2023/12/07 08:08:32;;;;;;;18.70;11.90;;;-2.20;99.90;;;;;;4981826;28;20038;-79
2023/12/07 08:11:00;;;;;;;16.37;11.40;;;-2.10;99.90;;;;;;4982375;28;20038;-79
2023/12/07 08:13:27;;;;;;;21.70;11.30;;;-2.10;99.90;;;;;;4978993;28;20147;-79
2023/12/07 08:15:53;;;;;;;16.40;11.93;;;-2.00;99.90;;;;;;4979109;28;20042;-79
2023/12/07 08:18:22;;;;;;;15.90;10.87;;;-1.90;99.90;;;;;;4985059;28;20025;-80
2023/12/07 08:20:48;;;;;;;19.43;11.23;;;-1.90;99.90;;;;;;4982761;28;20109;-79
2023/12/07 08:23:13;;;;;;;18.73;10.60;;;-1.80;99.90;;;;;;4978279;28;20098;-79
2023/12/07 08:25:40;;;;;;;17.17;11.57;;;-1.70;99.90;;;;;;4978862;28;20034;-79
2023/12/07 08:28:05;;;;;;;18.83;10.90;;;-1.70;99.90;;;;;;4983714;28;20595;-79
2023/12/07 08:30:31;;;;;;;17.63;11.37;;;-1.60;99.90;;;;;;4982744;28;20037;-79
2023/12/07 08:32:56;;;;;;;18.03;11.93;;;-1.50;99.90;;;;;;4978109;28;20030;-79
2023/12/07 08:35:23;;;;;;;16.57;11.17;;;-1.50;99.90;;;;;;4981511;28;20038;-79
2023/12/07 08:37:48;;;;;;;16.43;11.17;;;-1.40;99.90;;;;;;4981652;28;20022;-79
2023/12/07 08:40:15;;;;;;;15.77;10.43;;;-1.40;99.90;;;;;;4978531;28;20023;-80
2023/12/07 08:42:43;;;;;;;17.70;12.10;;;-1.40;99.90;;;;;;4975316;28;20058;-80
2023/12/07 08:45:09;;;;;;;17.23;10.87;;;-1.30;99.90;;;;;;4968415;28;20034;-80
2023/12/07 08:47:34;;;;;;;15.33;10.80;;;-1.30;99.90;;;;;;4971239;28;20885;-79
2023/12/07 08:50:00;;;;;;;22.43;11.73;;;-1.20;99.90;;;;;;4972232;28;20026;-79
2023/12/07 08:52:26;;;;;;;17.57;11.03;;;-1.20;99.90;;;;;;4970781;28;20030;-79
2023/12/07 08:54:51;;;;;;;19.07;11.10;;;-1.10;99.90;;;;;;4972196;28;20068;-80
2023/12/07 08:57:18;;;;;;;18.93;11.00;;;-1.10;99.90;;;;;;4972217;28;20812;-79
2023/12/07 08:59:43;;;;;;;16.90;11.37;;;-1.00;99.90;;;;;;4972139;28;20160;-80
2023/12/07 09:02:09;;;;;;;18.60;12.07;;;-1.00;99.90;;;;;;4972350;28;20161;-80
2023/12/07 09:04:34;;;;;;;18.20;11.43;;;-0.90;99.90;;;;;;4971879;28;20253;-79
2023/12/07 09:07:00;;;;;;;17.33;11.43;;;-0.90;99.90;;;;;;4970116;28;20038;-81
2023/12/07 09:09:26;;;;;;;17.60;11.33;;;-0.80;99.90;;;;;;4971680;28;20045;-80
2023/12/07 09:11:51;;;;;;;17.77;10.93;;;-0.80;99.90;;;;;;4970707;28;20018;-80
2023/12/07 09:14:17;;;;;;;19.20;11.20;;;-0.80;99.90;;;;;;4972675;28;20038;-80
2023/12/07 09:16:44;;;;;;;15.07;10.53;;;-0.70;99.90;;;;;;4970448;28;20050;-80
2023/12/07 09:19:10;;;;;;;16.47;10.27;;;-0.70;99.90;;;;;;4972177;28;20053;-80
2023/12/07 09:21:35;;;;;;;16.70;10.77;;;-0.60;99.90;;;;;;4972188;28;20031;-80
2023/12/07 09:24:01;;;;;;;15.43;10.37;;;-0.50;99.90;;;;;;4970708;28;20034;-80
2023/12/07 09:26:27;;;;;;;12.90;9.17;;;-0.50;99.90;;;;;;4972003;28;20034;-80
2023/12/07 09:28:53;;;;;;;13.33;9.57;;;-0.40;99.90;;;;;;4975077;28;20413;-81
2023/12/07 09:31:18;;;;;;;15.73;10.93;;;-0.40;99.90;;;;;;4975309;28;20026;-81
2023/12/07 09:33:44;;;;;;;15.00;9.43;;;-0.30;99.90;;;;;;4975012;28;20022;-81
2023/12/07 09:36:11;;;;;;;16.40;9.93;;;-0.20;99.90;;;;;;4975760;28;20042;-81
2023/12/07 09:38:39;;;;;;;16.87;10.13;;;-0.20;99.90;;;;;;4974100;28;20055;-81
2023/12/07 09:41:05;;;;;;;16.53;9.63;;;-0.10;99.90;;;;;;4982558;28;20026;-81
2023/12/07 09:43:30;;;;;;;16.60;10.03;;;0.00;99.90;;;;;;4974929;28;20030;-80
2023/12/07 09:45:57;;;;;;;17.73;10.67;;;0.10;99.90;;;;;;4974252;28;20034;-81
2023/12/07 09:48:24;;;;;;;17.93;10.40;;;0.10;99.90;;;;;;4974344;28;20031;-81
2023/12/07 09:50:50;;;;;;;18.90;10.10;;;0.20;99.90;;;;;;4976758;28;20693;-81
2023/12/07 09:53:17;;;;;;;17.00;10.03;;;0.30;99.90;;;;;;4974136;28;20560;-81
2023/12/07 09:55:42;;;;;;;19.07;9.97;;;0.30;99.90;;;;;;4975373;28;20041;-81
2023/12/07 09:58:08;;;;;;;16.13;9.80;;;0.40;99.90;;;;;;4975504;28;20035;-81
2023/12/07 10:00:35;;;;;;;16.60;9.70;;;0.50;99.90;;;;;;4975278;28;20032;-81
2023/12/07 10:03:00;;;;;;;21.63;9.73;;;0.50;99.90;;;;;;4973561;28;20085;-81
2023/12/07 10:05:26;;;;;;;16.10;10.07;;;0.70;99.90;;;;;;4974966;28;20107;-81
2023/12/07 10:07:51;;;;;;;14.50;8.93;;;0.80;99.90;;;;;;4974112;28;20026;-81
2023/12/07 10:10:18;;;;;;;13.43;8.30;;;1.10;99.90;;;;;;4975017;28;20172;-81
2023/12/07 10:12:59;;;;;;;15.47;8.90;;;1.30;99.90;;;;;;4974127;28;20041;-81
2023/12/07 10:15:25;;;;;;;12.80;8.10;;;1.60;99.90;;;;;;4975109;28;20995;-81
2023/12/07 10:17:53;;;;;;;13.23;8.30;;;1.80;99.90;;;;;;4975217;28;20026;-81
2023/12/07 10:20:23;;;;;;;15.43;8.40;;;1.90;99.90;;;;;;4978554;28;20529;-81
2023/12/07 10:23:00;;;;;;;10.67;6.97;;;1.90;99.90;;;;;;4986077;28;20086;-81
2023/12/07 10:25:26;;;;;;;11.27;7.83;;;1.90;99.90;;;;;;4985483;28;20041;-81
2023/12/07 10:27:52;;;;;;;13.27;7.90;;;1.90;99.90;;;;;;4984780;28;20465;-80
2023/12/07 10:30:24;;;;;;;12.80;6.97;;;1.90;99.90;;;;;;4985736;28;20035;-81
2023/12/07 10:32:50;;;;;;;12.93;7.07;;;1.90;99.90;;;;;;4984196;28;20057;-80
2023/12/07 10:35:18;;;;;;;12.63;7.70;;;2.00;99.90;;;;;;4987513;28;20039;-80
2023/12/07 10:37:43;;;;;;;11.90;7.30;;;2.00;99.90;;;;;;4984609;28;20034;-78
2023/12/07 10:40:09;;;;;;;9.43;6.20;;;2.00;99.90;;;;;;4980782;28;20026;-79
2023/12/07 10:42:37;;;;;;;8.77;5.50;;;2.00;99.90;;;;;;4979930;28;20149;-88
2023/12/07 10:45:06;;;;;;;8.43;5.33;;;2.10;99.90;;;;;;4976238;28;20027;-76
2023/12/07 10:47:37;;;;;;;15.93;6.07;;;2.20;99.90;;;;;;4982502;28;20033;-76
2023/12/07 10:50:10;;;;;;;10.07;5.93;;;2.20;99.90;;;;;;4983564;28;20108;-81
2023/12/07 10:52:39;;;;;;;9.23;6.33;;;2.30;99.90;;;;;;4984473;28;20348;-80
2023/12/07 10:55:15;;;;;;;9.40;5.63;;;2.30;99.90;;;;;;4984617;28;20065;-77
2023/12/07 10:57:43;;;;;;;10.20;5.27;;;2.40;99.90;;;;;;4982781;28;20105;-78
2023/12/07 11:00:10;;;;;;;10.40;4.90;;;2.50;99.90;;;;;;4980295;28;20120;-78
2023/12/07 11:02:37;;;;;;;7.80;5.20;;;2.50;99.90;;;;;;4980996;28;21432;-78
2023/12/07 11:05:04;;;;;;;8.87;4.23;;;2.60;99.90;;;;;;4981519;28;20038;-77
2023/12/07 11:07:57;;;;;;;7.00;4.13;;;2.60;99.90;;;;;;4980437;28;20032;-78
2023/12/07 11:10:31;;;;;;;6.30;3.70;;;2.70;99.90;;;;;;4982956;28;20022;-78
2023/12/07 11:13:13;;;;;;;5.40;3.53;;;2.70;99.90;;;;;;4982787;28;20030;-78
2023/12/07 11:15:38;;;;;;;7.70;3.93;;;2.80;99.90;;;;;;4982833;28;20069;-79
2023/12/07 11:18:05;;;;;;;9.60;3.40;;;2.90;99.90;;;;;;4983419;28;20769;-78
2023/12/07 11:20:41;;;;;;;6.83;4.23;;;3.00;99.90;;;;;;4983690;28;20040;-78
2023/12/07 11:23:09;;;;;;;5.50;3.60;;;3.00;99.90;;;;;;4982761;28;20037;-79
2023/12/07 11:25:35;;;;;;;6.70;3.63;;;3.00;99.90;;;;;;4982397;28;20034;-78
2023/12/07 11:28:06;;;;;;;6.27;4.03;;;3.00;99.90;;;;;;4982034;28;20088;-78
2023/12/07 11:30:35;;;;;;;6.17;3.70;;;3.00;99.90;;;;;;4982985;28;20113;-78
2023/12/07 11:33:00;;;;;;;4.93;3.80;;;3.10;99.90;;;;;;4982286;28;20098;-78
2023/12/07 11:35:26;;;;;;;6.13;3.80;;;3.10;99.90;;;;;;4981703;28;20030;-76
2023/12/07 11:38:06;;;;;;;6.57;3.63;;;3.10;99.90;;;;;;4980549;28;20031;-77
2023/12/07 11:40:32;;;;;;;7.00;3.47;;;3.10;99.90;;;;;;4980431;28;20058;-77
2023/12/07 11:43:04;;;;;;;5.27;3.33;;;3.20;99.90;;;;;;4980444;28;20081;-79
2023/12/07 11:45:36;;;;;;;5.73;3.70;;;3.30;99.90;;;;;;4980174;28;20041;-78
2023/12/07 11:48:13;;;;;;;7.13;4.10;;;3.30;99.90;;;;;;4980580;28;20023;-78
2023/12/07 11:50:59;;;;;;;6.13;3.30;;;3.30;99.90;;;;;;4980909;28;20076;-78
2023/12/07 11:53:32;;;;;;;5.40;3.28;;;3.30;99.90;;;;;;4977544;28;20492;-78
2023/12/07 11:55:59;;;;;;;6.17;3.73;;;3.30;99.90;;;;;;4980449;28;20031;-77
2023/12/07 11:58:26;;;;;;;6.87;3.37;;;3.30;99.90;;;;;;4981416;28;20050;-78
2023/12/07 12:00:53;;;;;;;4.80;3.17;;;3.40;99.90;;;;;;4980400;28;20061;-78
2023/12/07 12:03:20;;;;;;;6.20;3.53;;;3.40;99.90;;;;;;4980366;28;20030;-78
2023/12/07 12:05:45;;;;;;;5.73;3.87;;;3.40;99.90;;;;;;4980332;28;20121;-78
2023/12/07 12:08:11;;;;;;;5.93;3.23;;;3.40;99.90;;;;;;4980632;28;20157;-78
2023/12/07 12:10:38;;;;;;;4.67;3.43;;;3.40;99.90;;;;;;4981287;28;20113;-78
2023/12/07 12:13:04;;;;;;;6.10;3.17;;;3.50;99.90;;;;;;4981612;28;20038;-78
2023/12/07 12:15:30;;;;;;;5.20;3.60;;;3.50;99.90;;;;;;4984508;28;20026;-80
2023/12/07 12:17:57;;;;;;;7.47;3.87;;;3.60;99.90;;;;;;4983496;28;20492;-79
2023/12/07 12:20:24;;;;;;;5.93;3.33;;;3.60;99.90;;;;;;4982675;28;20124;-80
2023/12/07 12:22:53;;;;;;;6.90;3.80;;;3.70;99.90;;;;;;4986199;28;20026;-82
2023/12/07 12:25:20;;;;;;;6.13;3.30;;;3.70;99.90;;;;;;4987450;28;20038;-83
2023/12/07 12:27:47;;;;;;;7.40;3.27;;;3.70;99.90;;;;;;4986389;28;20548;-84
2023/12/07 12:30:13;;;;;;;4.27;2.93;;;3.70;99.90;;;;;;4985320;28;20042;-83